Terminal Aerodrome Forecast
Issued by NWS Twin Cities, MN

Home | Current Version | Previous Version | Graphics & Text | Print | Product List | Glossary On
Versions: 1 2 3 4 5 6 7 8 9 10 11 12 13 14 15 16 17
256
FTUS43 KMPX 280520
TAFEAU
TAF
KEAU 280520Z 2806/2906 08011KT P6SM OVC050
     FM280800 07010KT 6SM -SHRA BR OVC050
     FM282000 06008KT P6SM OVC090
     FM290300 04004KT P6SM OVC120=

USA.gov is the U.S. government's official web portal to all federal, state and local government web resources and services.